createdAt,value
2019-02-04T00:01:47.027Z,9.50
2019-02-04T00:04:31.611Z,10.47
2019-02-04T00:07:16.813Z,6.37
2019-02-04T00:10:01.489Z,8.70
2019-02-04T00:12:46.681Z,9.03
2019-02-04T00:15:31.634Z,9.33
2019-02-04T00:18:16.635Z,10.93
2019-02-04T00:20:49.031Z,9.37
2019-02-04T00:23:33.296Z,7.37
2019-02-04T00:26:25.250Z,10.37
2019-02-04T00:29:10.850Z,7.93
2019-02-04T00:31:55.839Z,8.87
2019-02-04T00:34:28.246Z,7.90
2019-02-04T00:37:12.940Z,10.03
2019-02-04T00:39:58.381Z,8.93
2019-02-04T00:42:43.107Z,11.47
2019-02-04T00:45:28.061Z,9.73
2019-02-04T00:48:00.599Z,11.57
2019-02-04T00:50:54.305Z,12.27
2019-02-04T00:53:38.834Z,13.70
2019-02-04T00:56:23.993Z,11.47
2019-02-04T00:58:56.589Z,9.00
2019-02-04T01:01:41.729Z,10.87
2019-02-04T01:04:26.901Z,10.83
2019-02-04T01:07:11.942Z,12.47
2019-02-04T01:09:44.310Z,11.57
2019-02-04T01:12:36.122Z,10.27
2019-02-04T01:15:21.250Z,11.97
2019-02-04T01:18:06.616Z,10.70
2019-02-04T01:20:52.205Z,11.50
2019-02-04T01:23:37.606Z,11.43
2019-02-04T01:26:10.045Z,12.30
2019-02-04T01:28:55.763Z,12.17
2019-02-04T01:31:28.299Z,11.70
2019-02-04T01:34:13.672Z,16.10
2019-02-04T01:36:58.821Z,12.00
2019-02-04T01:39:43.591Z,13.80
2019-02-04T01:42:28.722Z,10.33
2019-02-04T01:45:13.330Z,15.97
2019-02-04T01:47:58.179Z,12.60
2019-02-04T01:50:43.179Z,14.07
2019-02-04T01:53:28.305Z,13.80
2019-02-04T01:56:13.967Z,15.33
2019-02-04T01:58:59.242Z,13.93
2019-02-04T02:01:31.563Z,14.97
2019-02-04T02:04:17.041Z,13.97
2019-02-04T02:07:01.984Z,15.27
2019-02-04T02:09:47.164Z,17.77
2019-02-04T02:12:19.471Z,16.77
2019-02-04T02:15:11.559Z,16.97
2019-02-04T02:17:57.122Z,16.83
2019-02-04T02:20:29.640Z,14.23
2019-02-04T02:23:02.213Z,14.63
2019-02-04T02:25:54.136Z,15.40
2019-02-04T02:28:38.950Z,15.97
2019-02-04T02:31:24.013Z,16.60
2019-02-04T02:34:08.997Z,16.07
2019-02-04T02:36:41.185Z,17.10
2019-02-04T02:39:26.911Z,16.67
2019-02-04T02:42:12.178Z,19.30
2019-02-04T02:44:57.335Z,16.80
2019-02-04T02:47:42.201Z,16.77
2019-02-04T02:50:27.550Z,16.97
2019-02-04T02:52:59.968Z,18.87
2019-02-04T02:55:51.872Z,13.97
2019-02-04T02:58:37.329Z,21.40
2019-02-04T03:01:22.434Z,17.67
2019-02-04T03:04:07.788Z,14.13
2019-02-04T03:06:40.473Z,14.53
2019-02-04T03:09:25.660Z,19.23
2019-02-04T03:12:10.773Z,15.40
2019-02-04T03:14:56.268Z,17.67
2019-02-04T03:17:50.981Z,14.43
2019-02-04T03:20:28.834Z,16.23
2019-02-04T03:23:01.082Z,16.27
2019-02-04T03:25:52.989Z,19.83
2019-02-04T03:28:38.086Z,15.07
2019-02-04T03:31:23.145Z,14.60
2019-02-04T03:34:08.184Z,17.93
2019-02-04T03:36:53.243Z,17.83
2019-02-04T03:39:38.333Z,17.13
2019-02-04T03:42:23.583Z,17.50
2019-02-04T03:45:09.316Z,19.67
2019-02-04T03:47:41.963Z,18.20
2019-02-04T03:50:33.826Z,15.13
2019-02-04T03:53:20.668Z,19.13
2019-02-04T03:56:05.655Z,19.87
2019-02-04T03:58:50.922Z,15.77
2019-02-04T04:01:35.964Z,16.07
2019-02-04T04:04:11.204Z,17.87
2019-02-04T04:07:03.117Z,19.53
2019-02-04T04:09:48.390Z,17.13
2019-02-04T04:15:08.599Z,13.97
2019-02-04T04:17:40.938Z,18.47
2019-02-04T04:20:32.956Z,18.27
2019-02-04T04:23:18.301Z,16.80
2019-02-04T04:26:03.317Z,15.90
2019-02-04T04:28:48.466Z,14.90
2019-02-04T04:31:33.288Z,19.67
2019-02-04T04:34:18.439Z,13.37
2019-02-04T04:36:50.538Z,16.63
2019-02-04T04:39:35.306Z,19.27
2019-02-04T04:42:20.595Z,18.33
2019-02-04T04:45:05.526Z,18.43
2019-02-04T04:47:50.941Z,16.37
2019-02-04T04:50:35.601Z,18.20
2019-02-04T04:53:20.762Z,16.17
2019-02-04T04:55:53.270Z,18.83
2019-02-04T04:58:25.813Z,19.63
2019-02-04T05:01:17.871Z,16.13
2019-02-04T05:04:03.288Z,15.80
2019-02-04T05:06:48.593Z,16.47
2019-02-04T05:09:33.341Z,15.50
2019-02-04T05:12:18.874Z,17.13
2019-02-04T05:15:03.818Z,18.20
2019-02-04T05:17:36.538Z,15.90
2019-02-04T05:20:23.291Z,18.07
2019-02-04T05:23:08.074Z,15.40
2019-02-04T05:25:53.264Z,16.97
2019-02-04T05:28:38.582Z,15.90
2019-02-04T05:31:23.531Z,13.90
2019-02-04T05:34:08.581Z,13.40
2019-02-04T05:36:53.778Z,16.70
2019-02-04T05:39:26.589Z,20.07
2019-02-04T05:42:18.502Z,17.30
2019-02-04T05:45:03.902Z,15.57
2019-02-04T05:47:49.071Z,15.83
2019-02-04T05:50:34.066Z,17.77
2019-02-04T05:53:06.566Z,16.53
2019-02-04T05:55:51.370Z,17.50
2019-02-04T05:58:36.634Z,15.37
2019-02-04T06:01:21.649Z,18.93
2019-02-04T06:03:53.861Z,20.23
2019-02-04T06:06:38.632Z,14.57
2019-02-04T06:09:23.906Z,20.07
2019-02-04T06:12:09.281Z,16.37
2019-02-04T06:14:54.145Z,14.17
2019-02-04T06:17:39.011Z,15.13
2019-02-04T06:20:24.262Z,15.80
2019-02-04T06:23:09.462Z,19.97
2019-02-04T06:25:55.098Z,20.13
2019-02-04T06:28:40.639Z,17.10
2019-02-04T06:31:12.964Z,17.17
2019-02-04T06:34:04.948Z,15.83
2019-02-04T06:36:49.851Z,15.80
2019-02-04T06:39:35.185Z,14.63
2019-02-04T06:42:20.414Z,18.00
2019-02-04T06:45:05.154Z,15.43
2019-02-04T06:47:50.207Z,15.73
2019-02-04T06:50:35.569Z,22.17
2019-02-04T06:53:20.633Z,16.33
2019-02-04T06:56:05.472Z,14.67
2019-02-04T06:58:50.381Z,15.43
2019-02-04T07:01:35.565Z,15.93
2019-02-04T07:04:20.310Z,16.37
2019-02-04T07:06:52.514Z,16.77
2019-02-04T07:09:37.530Z,14.73
2019-02-04T07:12:22.854Z,13.53
2019-02-04T07:15:08.353Z,19.43
2019-02-04T07:17:53.469Z,17.77
2019-02-04T07:20:38.401Z,17.00
2019-02-04T07:23:23.711Z,21.53
2019-02-04T07:26:08.365Z,18.57
2019-02-04T07:28:53.229Z,13.87
2019-02-04T07:31:25.664Z,20.87
2019-02-04T07:34:17.490Z,14.47
2019-02-04T07:36:49.938Z,19.53
2019-02-04T07:39:41.670Z,17.67
2019-02-04T07:42:24.793Z,16.40
2019-02-04T07:45:09.750Z,16.37
2019-02-04T07:47:54.453Z,16.13
2019-02-04T07:50:27.237Z,18.13
2019-02-04T07:53:12.645Z,15.90
2019-02-04T07:55:57.324Z,16.53
2019-02-04T07:58:29.717Z,18.73
2019-02-04T08:01:14.440Z,22.17
2019-02-04T08:03:46.926Z,22.87
2019-02-04T08:06:19.317Z,22.10
2019-02-04T08:09:04.383Z,16.80
2019-02-04T08:11:49.438Z,24.67
2019-02-04T08:14:34.543Z,14.37
2019-02-04T08:17:07.309Z,18.30
2019-02-04T08:19:46.898Z,18.77
2019-02-04T08:22:20.242Z,18.83
2019-02-04T08:25:12.518Z,17.20
2019-02-04T08:28:00.001Z,15.70
2019-02-04T08:30:34.204Z,18.30
2019-02-04T08:33:19.867Z,16.90
2019-02-04T08:36:04.672Z,19.47
2019-02-04T08:38:49.959Z,15.23
2019-02-04T08:41:22.476Z,17.17
2019-02-04T08:44:07.714Z,20.70
2019-02-04T08:46:52.593Z,17.73
2019-02-04T08:49:37.403Z,17.77
2019-02-04T08:52:10.321Z,15.37
2019-02-04T08:55:02.133Z,17.63
2019-02-04T08:57:47.142Z,20.13
2019-02-04T09:00:32.131Z,13.33
2019-02-04T09:03:16.838Z,15.80
2019-02-04T09:06:02.302Z,17.10
2019-02-04T09:08:47.026Z,15.87
2019-02-04T09:11:19.323Z,15.77
2019-02-04T09:14:04.118Z,20.97
2019-02-04T09:16:36.413Z,16.10
2019-02-04T09:19:08.858Z,16.60
2019-02-04T09:21:40.978Z,18.97
2019-02-04T09:24:32.941Z,20.43
2019-02-04T09:27:20.420Z,22.00
2019-02-04T09:30:03.243Z,17.97
2019-02-04T09:32:48.674Z,16.17
2019-02-04T09:35:33.875Z,15.33
2019-02-04T09:38:18.671Z,14.13
2019-02-04T09:41:03.976Z,14.33
2019-02-04T09:43:49.487Z,15.03
2019-02-04T09:46:21.794Z,13.33
2019-02-04T09:48:54.478Z,12.37
2019-02-04T09:51:46.592Z,13.17
2019-02-04T09:54:32.426Z,13.70
2019-02-04T09:57:04.822Z,11.77
2019-02-04T09:59:49.518Z,14.57
2019-02-04T10:02:44.600Z,15.27
2019-02-04T10:05:38.823Z,14.27
2019-02-04T10:08:32.860Z,15.60
2019-02-04T10:11:05.219Z,11.87
2019-02-04T10:13:50.502Z,12.20
2019-02-04T10:16:35.742Z,13.70
2019-02-04T10:19:08.162Z,10.67
2019-02-04T10:21:54.033Z,11.70
2019-02-04T10:24:26.443Z,13.27
2019-02-04T10:27:20.201Z,13.83
2019-02-04T10:30:14.217Z,11.43
2019-02-04T10:32:59.220Z,11.50
2019-02-04T10:35:31.640Z,13.47
2019-02-04T10:38:24.078Z,15.80
2019-02-04T10:41:09.400Z,10.67
2019-02-04T10:43:54.641Z,11.97
2019-02-04T10:46:40.014Z,13.40
2019-02-04T10:49:24.737Z,14.50
2019-02-04T10:52:09.728Z,14.50
2019-02-04T10:54:54.694Z,9.90
2019-02-04T10:57:40.889Z,10.43
2019-02-04T11:00:26.413Z,13.97
2019-02-04T11:02:58.973Z,11.00
2019-02-04T11:05:43.956Z,7.47
2019-02-04T11:08:29.029Z,14.00
2019-02-04T11:11:14.225Z,9.30
2019-02-04T11:13:59.109Z,17.63
2019-02-04T11:16:44.350Z,15.27
2019-02-04T11:19:29.477Z,30.30
2019-02-04T11:22:01.957Z,9.80
2019-02-04T11:24:41.828Z,16.03
2019-02-04T11:27:22.310Z,8.53
2019-02-04T11:30:06.938Z,7.33
2019-02-04T11:32:52.144Z,8.53
2019-02-04T11:35:37.350Z,12.27
2019-02-04T11:38:22.390Z,6.87
2019-02-04T11:41:07.250Z,6.73
2019-02-04T11:43:52.292Z,7.67
2019-02-04T11:46:37.455Z,6.80
2019-02-04T11:49:09.892Z,18.93
2019-02-04T11:52:02.017Z,7.27
2019-02-04T11:54:47.917Z,6.60
2019-02-04T11:57:20.487Z,6.67
2019-02-04T12:00:06.735Z,7.17
2019-02-04T12:02:51.988Z,6.40
2019-02-04T12:05:37.202Z,7.83
2019-02-04T12:08:22.062Z,5.07
2019-02-04T12:11:07.418Z,7.37
2019-02-04T12:13:52.470Z,5.57
2019-02-04T12:16:37.379Z,6.03
2019-02-04T12:19:22.520Z,6.33
2019-02-04T12:22:07.507Z,9.00
2019-02-04T12:24:52.558Z,5.03
2019-02-04T12:27:37.863Z,4.67
2019-02-04T12:30:22.778Z,4.60
2019-02-04T12:33:07.862Z,4.53
2019-02-04T12:35:52.985Z,5.07
2019-02-04T12:38:25.338Z,5.80
2019-02-04T12:41:10.179Z,3.90
2019-02-04T12:43:55.436Z,4.60
2019-02-04T12:46:40.159Z,5.83
2019-02-04T12:49:12.450Z,4.33
2019-02-04T12:51:56.931Z,5.90
2019-02-04T12:54:42.458Z,13.63
2019-02-04T12:57:27.322Z,4.70
2019-02-04T13:00:12.494Z,5.23
2019-02-04T13:02:57.237Z,8.67
2019-02-04T13:05:42.234Z,10.33
2019-02-04T13:08:27.683Z,9.43
2019-02-04T13:11:12.562Z,5.27
2019-02-04T13:13:57.339Z,13.33
2019-02-04T13:16:29.651Z,10.53
2019-02-04T13:19:14.741Z,9.47
2019-02-04T13:21:59.694Z,12.30
2019-02-04T13:24:44.806Z,18.30
2019-02-04T13:27:29.894Z,23.87
2019-02-04T13:30:14.826Z,13.70
2019-02-04T13:33:00.066Z,11.17
2019-02-04T13:35:45.018Z,5.90
2019-02-04T13:38:30.501Z,15.03
2019-02-04T13:41:15.858Z,13.50
2019-02-04T13:44:01.178Z,10.70
2019-02-04T13:46:34.103Z,8.17
2019-02-04T13:49:18.878Z,9.83
2019-02-04T13:52:03.579Z,9.37
2019-02-04T13:54:36.005Z,8.17
2019-02-04T13:57:08.372Z,5.87
2019-02-04T13:59:53.716Z,14.87
2019-02-04T14:02:26.874Z,16.43
2019-02-04T14:05:12.438Z,8.93
2019-02-04T14:07:44.985Z,10.90
2019-02-04T14:10:38.079Z,14.07
2019-02-04T14:13:23.702Z,8.73
2019-02-04T14:16:08.624Z,8.70
2019-02-04T14:18:41.182Z,11.43
2019-02-04T14:21:33.063Z,6.67
2019-02-04T14:24:05.401Z,10.67
2019-02-04T14:26:57.614Z,8.13
2019-02-04T14:29:43.406Z,10.80
2019-02-04T14:35:00.762Z,20.13
2019-02-04T14:37:45.772Z,15.30
2019-02-04T14:40:19.055Z,14.90
2019-02-04T14:43:51.437Z,17.07
2019-02-04T14:47:02.827Z,16.97
2019-02-04T14:49:48.300Z,14.40
2019-02-04T14:52:33.854Z,12.93
2019-02-04T14:55:43.853Z,11.47
2019-02-04T14:58:21.983Z,11.17
2019-02-04T15:01:06.854Z,15.67
2019-02-04T15:04:18.248Z,19.73
2019-02-04T15:07:03.390Z,22.13
2019-02-04T15:12:52.575Z,11.10
2019-02-04T15:15:37.663Z,29.70
2019-02-04T15:18:22.667Z,37.03
2019-02-04T15:21:07.987Z,26.10
2019-02-04T15:23:52.813Z,22.73
2019-02-04T15:26:38.693Z,21.07
2019-02-04T15:29:50.163Z,19.13
2019-02-04T15:32:34.802Z,19.67
2019-02-04T15:35:19.981Z,20.30
2019-02-04T15:38:05.161Z,17.33
2019-02-04T15:40:59.910Z,16.17
2019-02-04T15:43:45.306Z,14.40
2019-02-04T15:46:30.447Z,16.30
2019-02-04T15:49:15.758Z,16.27
2019-02-04T15:52:00.540Z,14.70
2019-02-04T15:54:45.790Z,12.43
2019-02-04T15:57:18.289Z,16.90
2019-02-04T16:03:17.066Z,17.13
2019-02-04T16:06:02.497Z,17.77
2019-02-04T16:08:47.476Z,19.50
2019-02-04T16:11:32.922Z,18.27
2019-02-04T16:14:17.823Z,23.00
2019-02-04T16:16:50.256Z,25.20
2019-02-04T16:19:44.278Z,21.73
2019-02-04T16:22:28.955Z,22.13
2019-02-04T16:25:14.347Z,22.77
2019-02-04T16:27:59.291Z,22.07
2019-02-04T16:30:44.479Z,14.87
2019-02-04T16:33:29.936Z,18.90
2019-02-04T16:36:14.926Z,22.97
2019-02-04T16:38:47.685Z,29.57
2019-02-04T16:41:39.536Z,45.10
2019-02-04T16:44:25.005Z,66.37
2019-02-04T16:47:10.278Z,34.40
2019-02-04T16:49:55.219Z,26.90
2019-02-04T16:52:27.971Z,21.90
2019-02-04T16:55:13.343Z,20.33
2019-02-04T16:57:58.360Z,21.97
2019-02-04T17:00:43.958Z,20.90
2019-02-04T17:03:28.819Z,28.87
2019-02-04T17:06:13.949Z,39.27
2019-02-04T17:08:46.171Z,30.53
2019-02-04T17:11:30.824Z,25.97
2019-02-04T17:14:15.750Z,19.70
2019-02-04T17:16:48.039Z,18.53
2019-02-04T17:19:32.550Z,19.20
2019-02-04T17:22:17.518Z,19.93
2019-02-04T17:25:02.897Z,18.93
2019-02-04T17:27:47.703Z,20.30
2019-02-04T17:30:32.783Z,19.60
2019-02-04T17:33:05.281Z,17.97
2019-02-04T17:35:50.034Z,20.83
2019-02-04T17:38:35.102Z,19.10
2019-02-04T17:41:20.056Z,17.87
2019-02-04T17:44:05.441Z,22.20
2019-02-04T17:46:38.070Z,26.83
2019-02-04T17:49:29.890Z,24.63
2019-02-04T17:52:02.235Z,28.93
2019-02-04T17:54:34.526Z,24.60
2019-02-04T17:57:19.100Z,24.00
2019-02-04T18:00:06.052Z,23.50
2019-02-04T18:02:51.432Z,20.20
2019-02-04T18:05:36.214Z,19.53
2019-02-04T18:08:08.973Z,18.40
2019-02-04T18:10:54.106Z,35.00
2019-02-04T18:13:39.204Z,41.43
2019-02-04T18:16:11.541Z,39.50
2019-02-04T18:18:43.839Z,38.27
2019-02-04T18:21:16.173Z,22.40
2019-02-04T18:24:07.990Z,19.60
2019-02-04T18:26:53.352Z,18.50
2019-02-04T18:29:38.594Z,19.03
2019-02-04T18:32:23.824Z,22.67
2019-02-04T18:35:15.754Z,28.63
2019-02-04T18:38:00.717Z,24.73
2019-02-04T18:40:45.710Z,18.30
2019-02-04T18:43:30.742Z,35.37
2019-02-04T18:46:15.629Z,20.23
2019-02-04T18:49:00.615Z,15.80
2019-02-04T18:51:45.972Z,15.87
2019-02-04T18:54:18.328Z,17.50
2019-02-04T18:57:03.522Z,20.77
2019-02-04T18:59:48.610Z,14.90
2019-02-04T19:02:33.598Z,16.97
2019-02-04T19:05:18.662Z,18.27
2019-02-04T19:08:06.453Z,19.47
2019-02-04T19:10:51.731Z,17.43
2019-02-04T19:13:36.879Z,15.07
2019-02-04T19:16:21.922Z,15.83
2019-02-04T19:19:07.180Z,15.43
2019-02-04T19:21:39.726Z,15.43
2019-02-04T19:24:11.810Z,18.50
2019-02-04T19:26:44.280Z,19.30
2019-02-04T19:29:36.130Z,24.40
2019-02-04T19:32:08.544Z,27.63
2019-02-04T19:35:00.643Z,29.53
2019-02-04T19:37:57.528Z,17.17
2019-02-04T19:40:42.627Z,15.43
2019-02-04T19:43:27.723Z,14.47
2019-02-04T19:46:12.969Z,18.77
2019-02-04T19:48:58.031Z,17.47
2019-02-04T19:51:43.072Z,16.17
2019-02-04T19:54:41.074Z,15.80
2019-02-04T19:57:26.140Z,13.47
2019-02-04T20:00:11.634Z,17.83
2019-02-04T20:02:56.561Z,13.93
2019-02-04T20:05:41.736Z,17.03
2019-02-04T20:08:26.853Z,19.17
2019-02-04T20:11:11.919Z,22.27
2019-02-04T20:13:57.157Z,26.60
2019-02-04T20:16:42.142Z,22.33
2019-02-04T20:19:14.343Z,17.93
2019-02-04T20:21:59.026Z,13.73
2019-02-04T20:24:44.040Z,16.63
2019-02-04T20:27:16.297Z,18.37
2019-02-04T20:30:10.673Z,19.13
2019-02-04T20:33:04.151Z,17.23
2019-02-04T20:35:49.118Z,16.70
2019-02-04T20:38:34.117Z,16.47
2019-02-04T20:41:18.843Z,16.63
2019-02-04T20:43:51.169Z,14.33
2019-02-04T20:46:23.458Z,16.80
2019-02-04T20:49:08.519Z,15.93
2019-02-04T20:51:53.568Z,13.20
2019-02-04T20:54:25.764Z,16.27
2019-02-04T20:57:17.592Z,14.67
2019-02-04T21:00:02.860Z,15.63
2019-02-04T21:02:48.747Z,16.57
2019-02-04T21:05:33.949Z,26.00
2019-02-04T21:08:18.898Z,25.47
2019-02-04T21:11:04.016Z,23.80
2019-02-04T21:13:36.234Z,18.30
2019-02-04T21:16:28.338Z,13.93
2019-02-04T21:19:13.210Z,15.90
2019-02-04T21:21:45.425Z,13.93
2019-02-04T21:24:30.362Z,13.83
2019-02-04T21:27:15.354Z,13.40
2019-02-04T21:29:48.050Z,15.20
2019-02-04T21:32:20.362Z,20.23
2019-02-04T21:35:12.297Z,18.67
2019-02-04T21:37:57.709Z,17.37
2019-02-04T21:40:42.839Z,16.83
2019-02-04T21:43:27.883Z,17.47
2019-02-04T21:46:00.193Z,16.23
2019-02-04T21:48:56.939Z,18.13
2019-02-04T21:51:41.797Z,15.53
2019-02-04T21:54:27.143Z,15.27
2019-02-04T21:57:12.050Z,14.33
2019-02-04T21:59:56.967Z,15.50
2019-02-04T22:02:42.242Z,17.33
2019-02-04T22:05:27.022Z,16.07
2019-02-04T22:08:12.017Z,12.23
2019-02-04T22:10:57.262Z,20.70
2019-02-04T22:13:40.146Z,16.17
2019-02-04T22:16:25.074Z,12.07
2019-02-04T22:19:10.153Z,17.10
2019-02-04T22:21:54.994Z,16.87
2019-02-04T22:24:40.012Z,14.13
2019-02-04T22:27:12.133Z,16.40
2019-02-04T22:29:56.968Z,14.73
2019-02-04T22:32:42.622Z,14.43
2019-02-04T22:35:28.224Z,12.23
2019-02-04T22:38:13.216Z,12.57
2019-02-04T22:40:58.189Z,13.97
2019-02-04T22:43:43.299Z,14.50
2019-02-04T22:46:28.560Z,15.57
2019-02-04T22:49:00.878Z,14.73
2019-02-04T22:51:52.818Z,12.07
2019-02-04T22:54:39.594Z,11.83
2019-02-04T22:57:24.465Z,13.33
2019-02-04T22:59:56.761Z,13.13
2019-02-04T23:02:29.065Z,11.90
2019-02-04T23:05:01.346Z,14.33
2019-02-04T23:07:33.576Z,11.57
2019-02-04T23:10:27.267Z,12.27
2019-02-04T23:12:59.621Z,10.37
2019-02-04T23:15:53.962Z,12.40
2019-02-04T23:18:32.321Z,14.67
2019-02-04T23:21:06.153Z,10.43
2019-02-04T23:23:38.441Z,11.43
2019-02-04T23:26:11.010Z,10.37
2019-02-04T23:28:43.563Z,11.93
2019-02-04T23:31:28.605Z,10.97
2019-02-04T23:34:13.913Z,10.23
2019-02-04T23:36:59.214Z,10.83
2019-02-04T23:39:44.019Z,8.40
2019-02-04T23:42:16.546Z,9.73
2019-02-04T23:44:48.718Z,12.70
2019-02-04T23:47:34.037Z,16.73
2019-02-04T23:50:19.528Z,12.50
2019-02-04T23:53:04.525Z,11.03
2019-02-04T23:55:54.729Z,10.67
2019-02-04T23:58:23.520Z,13.37
